createdAt,value
2017-10-09T00:00:07.672Z,99356.83
2017-10-09T00:02:35.070Z,99352.42
2017-10-09T00:05:02.652Z,99353.63
2017-10-09T00:07:30.121Z,99362.72
2017-10-09T00:09:57.862Z,99360.92
2017-10-09T00:12:25.274Z,99368.11
2017-10-09T00:14:52.676Z,99372.22
2017-10-09T00:17:20.101Z,99369.43
2017-10-09T00:19:47.502Z,99371.80
2017-10-09T00:22:14.926Z,99376.17
2017-10-09T00:24:42.333Z,99368.05
2017-10-09T00:27:10.058Z,99382.42
2017-10-09T00:29:37.508Z,99380.72
2017-10-09T00:32:04.931Z,99378.41
2017-10-09T00:34:32.393Z,99373.86
2017-10-09T00:36:59.814Z,99370.00
2017-10-09T00:39:27.564Z,99369.72
2017-10-09T00:41:55.051Z,99368.55
2017-10-09T00:44:22.470Z,99374.06
2017-10-09T00:46:49.890Z,99366.45
2017-10-09T00:49:17.306Z,99365.41
2017-10-09T00:51:44.738Z,99365.61
2017-10-09T00:54:12.138Z,99368.41
2017-10-09T00:56:39.857Z,99359.81
2017-10-09T00:59:07.260Z,99356.00
2017-10-09T01:01:34.665Z,99350.73
2017-10-09T01:04:02.098Z,99349.89
2017-10-09T01:06:29.525Z,99344.30
2017-10-09T01:08:56.945Z,99348.35
2017-10-09T01:11:24.361Z,99347.94
2017-10-09T01:13:52.157Z,99356.64
2017-10-09T01:16:19.577Z,99345.48
2017-10-09T01:18:46.990Z,99343.80
2017-10-09T01:21:14.411Z,99342.78
2017-10-09T01:23:41.814Z,99349.79
2017-10-09T01:26:09.553Z,99353.97
2017-10-09T01:28:37.001Z,99354.59
2017-10-09T01:31:04.466Z,99351.91
2017-10-09T01:33:31.897Z,99356.02
2017-10-09T01:35:59.383Z,99351.11
2017-10-09T01:38:27.135Z,99353.81
2017-10-09T01:40:54.542Z,99349.05
2017-10-09T01:43:22.064Z,99352.14
2017-10-09T01:45:49.471Z,99348.39
2017-10-09T01:48:16.970Z,99351.59
2017-10-09T01:50:44.396Z,99366.81
2017-10-09T01:53:11.876Z,99364.29
2017-10-09T01:55:39.651Z,99369.28
2017-10-09T01:58:07.076Z,99364.85
2017-10-09T02:00:34.480Z,99367.09
2017-10-09T02:03:01.911Z,99364.29
2017-10-09T02:05:29.328Z,99367.82
2017-10-09T02:07:56.752Z,99360.14
2017-10-09T02:10:24.148Z,99359.75
2017-10-09T02:12:51.948Z,99360.86
2017-10-09T02:15:19.374Z,99360.30
2017-10-09T02:17:46.860Z,99362.28
2017-10-09T02:20:14.283Z,99356.66
2017-10-09T02:22:41.716Z,99361.77
2017-10-09T02:25:09.136Z,99360.24
2017-10-09T02:27:36.560Z,99363.44
2017-10-09T02:30:04.288Z,99358.98
2017-10-09T02:32:31.692Z,99365.88
2017-10-09T02:34:59.097Z,99365.73
2017-10-09T02:37:26.534Z,99364.04
2017-10-09T02:39:53.956Z,99364.30
2017-10-09T02:42:21.424Z,99361.83
2017-10-09T02:44:48.826Z,99363.60
2017-10-09T02:47:16.556Z,99361.46
2017-10-09T02:49:44.011Z,99365.16
2017-10-09T02:52:11.429Z,99362.94
2017-10-09T02:54:38.859Z,99353.50
2017-10-09T02:57:06.278Z,99364.62
2017-10-09T02:59:33.714Z,99359.83
2017-10-09T03:02:01.192Z,99355.72
2017-10-09T03:04:28.963Z,99352.45
2017-10-09T03:06:56.372Z,99350.36
2017-10-09T03:09:23.796Z,99350.52
2017-10-09T03:11:51.220Z,99349.94
2017-10-09T03:14:18.629Z,99350.72
2017-10-09T03:16:46.056Z,99347.61
2017-10-09T03:19:13.459Z,99354.03
2017-10-09T03:21:41.186Z,99351.56
2017-10-09T03:24:14.210Z,99350.94
2017-10-09T03:29:53.045Z,99344.34
2017-10-09T03:32:20.749Z,99345.19
2017-10-09T03:34:48.159Z,99347.71
2017-10-09T03:37:15.563Z,99345.56
2017-10-09T03:39:42.986Z,99350.49
2017-10-09T03:42:10.404Z,99341.41
2017-10-09T03:44:37.836Z,99347.50
2017-10-09T03:47:05.284Z,99348.13
2017-10-09T03:49:32.713Z,99340.91
2017-10-09T03:52:00.133Z,99336.54
2017-10-09T03:54:27.961Z,99337.86
2017-10-09T03:56:55.365Z,99343.13
2017-10-09T03:59:22.796Z,99339.22
2017-10-09T04:01:50.225Z,99342.38
2017-10-09T04:04:17.636Z,99348.63
2017-10-09T04:06:45.053Z,99349.86
2017-10-09T04:09:12.474Z,99347.97
2017-10-09T04:11:41.293Z,99346.31
2017-10-09T04:14:08.717Z,99348.05
2017-10-09T04:16:36.214Z,99349.64
2017-10-09T04:19:03.688Z,99347.23
2017-10-09T04:21:31.102Z,99347.32
2017-10-09T04:23:58.955Z,99346.95
2017-10-09T04:26:26.441Z,99353.59
2017-10-09T04:28:53.868Z,99353.39
2017-10-09T04:31:21.303Z,99354.64
2017-10-09T04:33:48.715Z,99360.32
2017-10-09T04:36:16.243Z,99359.54
2017-10-09T04:38:43.691Z,99361.55
2017-10-09T04:41:11.503Z,99360.16
2017-10-09T04:43:38.907Z,99364.11
2017-10-09T04:46:06.308Z,99369.06
2017-10-09T04:48:34.283Z,99368.22
2017-10-09T04:51:01.706Z,99372.66
2017-10-09T04:53:29.490Z,99374.14
2017-10-09T04:55:56.909Z,99375.94
2017-10-09T04:58:24.332Z,99366.66
2017-10-09T05:00:51.776Z,99366.86
2017-10-09T05:03:19.198Z,99369.13
2017-10-09T05:05:46.996Z,99368.80
2017-10-09T05:08:14.464Z,99360.91
2017-10-09T05:10:41.878Z,99357.34
2017-10-09T05:13:09.371Z,99360.28
2017-10-09T05:15:36.799Z,99356.91
2017-10-09T05:18:04.609Z,99362.08
2017-10-09T05:20:32.028Z,99356.39
2017-10-09T05:22:59.456Z,99365.20
2017-10-09T05:34:15.349Z,99365.09
2017-10-09T05:36:43.688Z,99367.25
2017-10-09T05:39:11.135Z,99372.32
2017-10-09T05:41:39.032Z,99371.10
2017-10-09T05:44:06.424Z,99370.64
2017-10-09T05:46:33.847Z,99372.32
2017-10-09T05:49:01.310Z,99371.16
2017-10-09T05:51:28.762Z,99368.33
2017-10-09T05:53:56.182Z,99369.31
2017-10-09T05:56:23.584Z,99365.69
2017-10-09T05:58:51.363Z,99371.27
2017-10-09T06:01:18.764Z,99370.31
2017-10-09T06:03:46.243Z,99369.05
2017-10-09T06:06:13.668Z,99364.78
2017-10-09T06:08:41.101Z,99365.16
2017-10-09T06:11:08.975Z,99358.14
2017-10-09T06:13:36.499Z,99361.68
2017-10-09T06:16:03.948Z,99360.09
2017-10-09T06:18:31.431Z,99365.05
2017-10-09T06:20:58.873Z,99361.52
2017-10-09T06:23:26.340Z,99363.05
2017-10-09T06:25:53.757Z,99365.68
2017-10-09T06:28:21.593Z,99369.11
2017-10-09T06:30:48.992Z,99367.63
2017-10-09T06:33:16.397Z,99367.80
2017-10-09T06:35:43.852Z,99371.06
2017-10-09T06:38:11.291Z,99371.27
2017-10-09T06:40:38.788Z,99371.11
2017-10-09T06:43:06.207Z,99374.75
2017-10-09T06:45:33.695Z,99372.06
2017-10-09T06:48:02.124Z,99374.53
2017-10-09T06:50:29.892Z,99374.31
2017-10-09T06:52:57.366Z,99382.80
2017-10-09T06:55:24.801Z,99382.44
2017-10-09T06:57:52.226Z,99389.30
2017-10-09T07:00:19.630Z,99384.55
2017-10-09T07:02:47.104Z,99384.19
2017-10-09T07:05:14.517Z,99381.21
2017-10-09T07:07:42.291Z,99378.69
2017-10-09T07:10:09.711Z,99383.06
2017-10-09T07:12:37.205Z,99380.80
2017-10-09T07:15:04.640Z,99380.63
2017-10-09T07:17:32.139Z,99387.92
2017-10-09T07:19:59.620Z,99388.18
2017-10-09T07:22:27.077Z,99378.87
2017-10-09T07:24:54.801Z,99380.80
2017-10-09T07:27:22.218Z,99382.27
2017-10-09T07:29:49.627Z,99385.70
2017-10-09T07:32:17.058Z,99385.22
2017-10-09T07:34:44.500Z,99387.02
2017-10-09T07:37:12.296Z,99389.13
2017-10-09T07:39:39.747Z,99384.09
2017-10-09T07:42:07.171Z,99385.15
2017-10-09T07:44:34.594Z,99382.13
2017-10-09T07:47:02.021Z,99385.09
2017-10-09T07:49:29.463Z,99385.53
2017-10-09T07:51:56.867Z,99389.10
2017-10-09T07:54:24.576Z,99399.29
2017-10-09T07:56:51.992Z,99403.39
2017-10-09T07:59:19.401Z,99399.17
2017-10-09T08:01:46.838Z,99395.94
2017-10-09T08:04:14.245Z,99398.94
2017-10-09T08:06:41.670Z,99406.98
2017-10-09T08:09:09.147Z,99412.55
2017-10-09T08:11:37.225Z,99407.31
2017-10-09T08:14:04.645Z,99413.64
2017-10-09T08:16:32.052Z,99413.58
2017-10-09T08:18:59.516Z,99410.09
2017-10-09T08:21:26.949Z,99414.76
2017-10-09T08:23:54.761Z,99411.22
2017-10-09T08:26:22.219Z,99404.55
2017-10-09T08:28:49.630Z,99408.42
2017-10-09T08:31:17.161Z,99411.92
2017-10-09T08:33:44.570Z,99414.84
2017-10-09T08:36:12.336Z,99416.34
2017-10-09T08:38:39.778Z,99417.06
2017-10-09T08:46:13.034Z,99409.82
2017-10-09T08:51:13.412Z,99411.48
2017-10-09T08:53:40.892Z,99417.19
2017-10-09T08:58:42.857Z,99408.59
2017-10-09T09:03:43.150Z,99410.55
2017-10-09T09:11:16.284Z,99416.61
2017-10-09T09:18:49.245Z,99417.85
2017-10-09T09:21:16.730Z,99417.16
2017-10-09T09:31:22.607Z,99417.62
2017-10-09T09:33:50.060Z,99417.50
2017-10-09T09:38:50.446Z,99407.86
2017-10-09T09:41:17.930Z,99405.70
2017-10-09T09:48:51.126Z,99407.11
2017-10-09T09:56:24.343Z,99394.97
2017-10-09T09:58:51.814Z,99408.27
2017-10-09T10:01:19.256Z,99403.32
2017-10-09T10:03:46.733Z,99402.46
2017-10-09T10:06:14.166Z,99410.88
2017-10-09T10:08:41.652Z,99407.90
2017-10-09T10:11:09.082Z,99409.25
2017-10-09T10:13:37.642Z,99408.47
2017-10-09T10:16:05.065Z,99401.18
2017-10-09T10:18:32.552Z,99406.20
2017-10-09T10:20:59.958Z,99400.19
2017-10-09T10:23:27.441Z,99413.11
2017-10-09T10:25:55.731Z,99404.09
2017-10-09T10:28:23.456Z,99412.23
2017-10-09T10:30:51.046Z,99405.06
2017-10-09T10:33:18.446Z,99405.47
2017-10-09T10:35:45.947Z,99405.06
2017-10-09T10:38:13.395Z,99399.97
2017-10-09T10:40:40.821Z,99405.78
2017-10-09T10:43:08.266Z,99401.65
2017-10-09T10:45:36.044Z,99402.94
2017-10-09T10:48:03.460Z,99399.17
2017-10-09T10:50:30.870Z,99403.05
2017-10-09T10:52:58.299Z,99400.27
2017-10-09T10:55:25.730Z,99395.80
2017-10-09T10:57:53.185Z,99399.92
2017-10-09T11:00:20.624Z,99394.58
2017-10-09T11:02:48.056Z,99384.69
2017-10-09T11:05:15.554Z,99388.58
2017-10-09T11:10:17.160Z,99382.23
2017-10-09T11:12:45.558Z,99377.53
2017-10-09T11:15:13.931Z,99377.50
2017-10-09T11:17:41.320Z,99374.22
2017-10-09T11:20:08.754Z,99368.86
2017-10-09T11:22:36.166Z,99366.73
2017-10-09T11:25:03.610Z,99366.49
2017-10-09T11:27:31.066Z,99369.22
2017-10-09T11:29:58.468Z,99366.25
2017-10-09T11:32:25.892Z,99369.98
2017-10-09T11:34:53.348Z,99367.86
2017-10-09T11:37:20.801Z,99360.81
2017-10-09T11:39:48.262Z,99359.58
2017-10-09T11:42:15.702Z,99354.63
2017-10-09T11:47:09.868Z,99351.31
2017-10-09T11:49:37.319Z,99343.78
2017-10-09T11:52:04.745Z,99343.38
2017-10-09T11:54:32.165Z,99343.95
2017-10-09T11:56:59.578Z,99352.68
2017-10-09T11:59:27.025Z,99349.45
2017-10-09T12:01:54.551Z,99346.37
2017-10-09T12:04:21.980Z,99351.78
2017-10-09T12:06:49.411Z,99347.00
2017-10-09T12:09:16.829Z,99340.93
2017-10-09T12:11:44.611Z,99338.48
2017-10-09T12:14:12.310Z,99338.84
2017-10-09T12:16:39.732Z,99337.52
2017-10-09T12:19:07.199Z,99337.22
2017-10-09T12:21:34.993Z,99331.02
2017-10-09T12:24:02.493Z,99335.10
2017-10-09T12:26:29.986Z,99330.73
2017-10-09T12:28:57.521Z,99323.78
2017-10-09T12:31:24.928Z,99311.83
2017-10-09T12:33:52.341Z,99311.09
2017-10-09T12:36:19.806Z,99307.40
2017-10-09T12:38:47.227Z,99306.22
2017-10-09T12:41:14.653Z,99305.23
2017-10-09T12:43:42.104Z,99300.36
2017-10-09T12:46:09.562Z,99300.25
2017-10-09T12:48:37.043Z,99297.44
2017-10-09T12:51:04.460Z,99299.27
2017-10-09T12:53:31.935Z,99287.96
2017-10-09T12:55:59.396Z,99295.62
2017-10-09T12:58:27.209Z,99292.78
2017-10-09T13:00:54.612Z,99288.92
2017-10-09T13:03:22.039Z,99288.72
2017-10-09T13:05:49.493Z,99288.12
2017-10-09T13:08:16.980Z,99289.17
2017-10-09T13:10:44.387Z,99290.55
2017-10-09T13:13:11.791Z,99279.58
2017-10-09T13:15:39.587Z,99276.02
2017-10-09T13:18:07.016Z,99274.17
2017-10-09T13:20:34.480Z,99268.94
2017-10-09T13:23:01.996Z,99266.50
2017-10-09T13:25:29.417Z,99264.85
2017-10-09T13:27:57.201Z,99262.48
2017-10-09T13:30:24.607Z,99263.02
2017-10-09T13:32:52.057Z,99266.55
2017-10-09T13:35:19.531Z,99263.08
2017-10-09T13:37:46.956Z,99257.56
2017-10-09T13:40:14.691Z,99258.81
2017-10-09T13:42:42.124Z,99258.18
2017-10-09T13:47:42.376Z,99254.13
2017-10-09T13:50:09.863Z,99253.59
2017-10-09T13:52:37.457Z,99258.53
2017-10-09T13:55:04.926Z,99258.99
2017-10-09T14:02:39.923Z,99251.97
2017-10-09T14:05:07.393Z,99245.14
2017-10-09T14:12:40.636Z,99251.42
2017-10-09T14:17:41.090Z,99252.52
2017-10-09T14:22:41.321Z,99249.31
2017-10-09T14:30:16.210Z,99238.21
2017-10-09T14:40:06.099Z,99230.16
2017-10-09T14:42:33.598Z,99226.22
2017-10-09T14:45:01.109Z,99227.22
2017-10-09T14:47:28.625Z,99230.11
2017-10-09T14:49:56.120Z,99232.77
2017-10-09T14:52:23.595Z,99225.38
2017-10-09T14:54:52.072Z,99227.16
2017-10-09T14:57:19.564Z,99224.73
2017-10-09T14:59:47.168Z,99231.37
2017-10-09T15:02:14.644Z,99222.16
2017-10-09T15:04:42.241Z,99223.08
2017-10-09T15:07:09.718Z,99224.58
2017-10-09T15:09:37.264Z,99224.45
2017-10-09T15:12:04.797Z,99226.74
2017-10-09T15:14:32.304Z,99226.38
2017-10-09T15:16:59.907Z,99218.16
2017-10-09T15:19:27.375Z,99221.70
2017-10-09T15:21:54.938Z,99224.40
2017-10-09T15:24:22.434Z,99222.78
2017-10-09T15:26:50.275Z,99215.96
2017-10-09T15:29:17.765Z,99215.05
2017-10-09T15:31:45.262Z,99217.88
2017-10-09T15:34:12.792Z,99224.24
2017-10-09T15:36:40.370Z,99215.77
2017-10-09T15:39:07.893Z,99227.00
2017-10-09T15:41:35.419Z,99222.03
2017-10-09T15:44:02.902Z,99223.94
2017-10-09T15:46:30.383Z,99232.77
2017-10-09T15:48:58.197Z,99231.34
2017-10-09T15:51:25.681Z,99231.91
2017-10-09T15:53:53.200Z,99229.77
2017-10-09T15:56:20.674Z,99229.77
2017-10-09T15:58:48.169Z,99231.59
2017-10-09T16:01:15.667Z,99233.41
2017-10-09T16:03:43.217Z,99233.47
2017-10-09T16:06:10.774Z,99241.67
2017-10-09T16:08:38.283Z,99246.80
2017-10-09T16:11:06.048Z,99245.38
2017-10-09T16:13:33.521Z,99240.14
2017-10-09T16:16:00.989Z,99233.41
2017-10-09T16:18:28.453Z,99235.12
2017-10-09T16:26:39.212Z,99233.88
2017-10-09T16:29:12.351Z,99234.50
2017-10-09T16:31:40.178Z,99232.17
2017-10-09T16:34:07.639Z,99232.55
2017-10-09T16:36:35.133Z,99239.07
2017-10-09T16:39:02.608Z,99237.16
2017-10-09T16:41:30.139Z,99239.87
2017-10-09T16:43:57.627Z,99242.55
2017-10-09T16:46:25.110Z,99244.67
2017-10-09T16:48:52.590Z,99242.86
2017-10-09T16:51:20.080Z,99240.70
2017-10-09T16:53:47.536Z,99246.83
2017-10-09T16:56:15.026Z,99241.25
2017-10-09T16:58:42.517Z,99239.66
2017-10-09T17:01:10.024Z,99237.73
2017-10-09T17:03:37.491Z,99243.21
2017-10-09T17:06:04.974Z,99241.89
2017-10-09T17:08:32.454Z,99243.27
2017-10-09T17:10:59.931Z,99241.05
2017-10-09T17:13:27.411Z,99242.81
2017-10-09T17:15:54.913Z,99248.80
2017-10-09T17:18:22.688Z,99242.08
2017-10-09T17:20:50.172Z,99236.86
2017-10-09T17:23:17.632Z,99243.03
2017-10-09T17:25:45.104Z,99235.70
2017-10-09T17:28:13.194Z,99234.56
2017-10-09T17:30:40.968Z,99243.12
2017-10-09T17:33:08.536Z,99235.07
2017-10-09T17:35:36.037Z,99230.69
2017-10-09T17:38:03.537Z,99231.36
2017-10-09T17:40:31.001Z,99225.00
2017-10-09T17:42:58.503Z,99223.09
2017-10-09T17:45:26.020Z,99221.07
2017-10-09T17:47:53.523Z,99223.55
2017-10-09T17:50:21.229Z,99226.20
2017-10-09T17:52:48.696Z,99227.91
2017-10-09T17:55:16.182Z,99228.34
2017-10-09T17:57:43.673Z,99225.67
2017-10-09T18:00:11.201Z,99222.42
2017-10-09T18:02:38.766Z,99227.59
2017-10-09T18:05:06.246Z,99223.19
2017-10-09T18:07:33.762Z,99227.67
2017-10-09T18:10:01.237Z,99223.12
2017-10-09T18:12:28.712Z,99226.03
2017-10-09T18:14:56.199Z,99229.83
2017-10-09T18:17:24.006Z,99220.11
2017-10-09T18:19:51.467Z,99220.81
2017-10-09T18:22:18.963Z,99218.76
2017-10-09T18:24:46.443Z,99210.55
2017-10-09T18:27:13.952Z,99205.20
2017-10-09T18:29:41.427Z,99201.50
2017-10-09T18:32:08.882Z,99211.66
2017-10-09T18:34:36.712Z,99216.05
2017-10-09T18:37:04.185Z,99210.50
2017-10-09T18:39:31.663Z,99215.02
2017-10-09T18:41:59.246Z,99214.66
2017-10-09T18:44:26.722Z,99211.50
2017-10-09T18:46:55.126Z,99218.84
2017-10-09T18:49:22.645Z,99216.80
2017-10-09T18:51:50.941Z,99214.34
2017-10-09T18:54:18.541Z,99220.45
2017-10-09T18:56:46.012Z,99214.42
2017-10-09T18:59:13.486Z,99218.17
2017-10-09T19:01:40.947Z,99212.70
2017-10-09T19:04:08.912Z,99212.58
2017-10-09T19:06:36.427Z,99217.49
2017-10-09T19:09:03.927Z,99214.34
2017-10-09T19:11:31.401Z,99213.39
2017-10-09T19:13:58.870Z,99212.18
2017-10-09T19:16:26.346Z,99213.91
2017-10-09T19:18:53.817Z,99215.95
2017-10-09T19:21:21.303Z,99208.13
2017-10-09T19:23:48.779Z,99210.53
2017-10-09T19:26:16.298Z,99209.20
2017-10-09T19:28:43.831Z,99215.77
2017-10-09T19:31:11.306Z,99210.72
2017-10-09T19:33:38.799Z,99218.80
2017-10-09T19:36:06.272Z,99210.14
2017-10-09T19:38:33.882Z,99208.90
2017-10-09T19:41:01.349Z,99205.28
2017-10-09T19:43:28.832Z,99207.58
2017-10-09T19:45:56.303Z,99211.43
2017-10-09T19:48:23.796Z,99212.12
2017-10-09T19:50:51.269Z,99205.40
2017-10-09T19:53:18.757Z,99203.96
2017-10-09T19:55:46.244Z,99212.27
2017-10-09T19:58:13.748Z,99202.11
2017-10-09T20:00:41.237Z,99203.55
2017-10-09T20:03:08.792Z,99202.77
2017-10-09T20:05:36.254Z,99200.41
2017-10-09T20:08:03.745Z,99202.89
2017-10-09T20:10:31.213Z,99210.64
2017-10-09T20:12:58.690Z,99207.63
2017-10-09T20:15:26.455Z,99210.11
2017-10-09T20:17:54.038Z,99207.28
2017-10-09T20:20:21.579Z,99203.63
2017-10-09T20:22:49.036Z,99208.95
2017-10-09T20:25:16.526Z,99211.78
2017-10-09T20:27:44.044Z,99208.06
2017-10-09T20:30:11.583Z,99209.44
2017-10-09T20:32:39.090Z,99203.38
2017-10-09T20:35:06.599Z,99204.62
2017-10-09T20:37:34.084Z,99209.80
2017-10-09T20:40:01.583Z,99213.22
2017-10-09T20:42:29.092Z,99212.52
2017-10-09T20:44:56.611Z,99208.02
2017-10-09T20:47:24.109Z,99214.81
2017-10-09T20:49:51.645Z,99214.98
2017-10-09T20:52:19.158Z,99213.66
2017-10-09T20:54:46.636Z,99219.08
2017-10-09T20:57:14.110Z,99207.05
2017-10-09T20:59:41.587Z,99199.11
2017-10-09T21:02:09.048Z,99205.70
2017-10-09T21:04:36.534Z,99207.63
2017-10-09T21:07:04.000Z,99205.28
2017-10-09T21:09:31.536Z,99202.64
2017-10-09T21:11:59.097Z,99206.26
2017-10-09T21:14:26.577Z,99205.66
2017-10-09T21:16:54.079Z,99207.30
2017-10-09T21:19:21.550Z,99203.91
2017-10-09T21:21:49.047Z,99205.07
2017-10-09T21:24:16.577Z,99203.91
2017-10-09T21:26:44.123Z,99199.36
2017-10-09T21:29:11.613Z,99197.08
2017-10-09T21:31:39.092Z,99204.58
2017-10-09T21:34:06.575Z,99200.80
2017-10-09T21:36:34.034Z,99195.14
2017-10-09T21:39:01.648Z,99187.77
2017-10-09T21:41:29.898Z,99196.35
2017-10-09T21:43:57.781Z,99192.92
2017-10-09T21:46:25.255Z,99187.39
2017-10-09T21:48:52.741Z,99187.59
2017-10-09T21:51:21.177Z,99183.31
2017-10-09T21:53:49.252Z,99181.45
2017-10-09T21:56:16.748Z,99184.63
2017-10-09T21:58:44.237Z,99183.02
2017-10-09T22:01:11.808Z,99178.50
2017-10-09T22:03:39.310Z,99183.53
2017-10-09T22:06:06.807Z,99185.06
2017-10-09T22:08:34.285Z,99180.80
2017-10-09T22:11:01.763Z,99178.55
2017-10-09T22:13:29.243Z,99174.60
2017-10-09T22:15:56.730Z,99171.89
2017-10-09T22:18:24.226Z,99170.75
2017-10-09T22:20:51.685Z,99167.55
2017-10-09T22:23:19.170Z,99165.47
2017-10-09T22:25:46.664Z,99169.42
2017-10-09T22:28:14.118Z,99171.59
2017-10-09T22:30:41.614Z,99172.91
2017-10-09T22:33:09.105Z,99170.92
2017-10-09T22:35:36.600Z,99175.07
2017-10-09T22:38:04.118Z,99179.20
2017-10-09T22:40:31.614Z,99172.07
2017-10-09T22:42:59.102Z,99156.05
2017-10-09T22:45:26.595Z,99164.88
2017-10-09T22:47:54.096Z,99167.38
2017-10-09T22:50:21.570Z,99165.72
2017-10-09T22:52:49.058Z,99158.02
2017-10-09T22:55:16.532Z,99155.66
2017-10-09T22:57:44.036Z,99157.53
2017-10-09T23:00:11.502Z,99161.84
2017-10-09T23:02:39.041Z,99160.29
2017-10-09T23:05:06.504Z,99155.84
2017-10-09T23:07:33.980Z,99148.09
2017-10-09T23:10:01.457Z,99154.23
2017-10-09T23:12:28.927Z,99158.02
2017-10-09T23:14:56.686Z,99151.41
2017-10-09T23:17:24.269Z,99148.30
2017-10-09T23:19:51.728Z,99144.12
2017-10-09T23:22:19.193Z,99156.27
2017-10-09T23:24:46.651Z,99160.83
2017-10-09T23:27:14.164Z,99158.43
2017-10-09T23:29:41.627Z,99160.47
2017-10-09T23:32:09.103Z,99156.19
2017-10-09T23:34:36.600Z,99161.52
2017-10-09T23:37:04.056Z,99158.51
2017-10-09T23:39:31.548Z,99157.06
2017-10-09T23:41:59.067Z,99163.85
2017-10-09T23:44:26.528Z,99160.50
2017-10-09T23:46:54.016Z,99152.75
2017-10-09T23:49:21.483Z,99155.44
2017-10-09T23:51:48.959Z,99153.51
2017-10-09T23:54:16.428Z,99147.92
2017-10-09T23:56:44.223Z,99142.52
2017-10-09T23:59:11.687Z,99143.97
